Time;durP1;ratioP1;P1;durP2;ratioP2;P2;SDS_P1;SDS_P2;PMS_P1;PMS_P2;Temp;Humidity;BMP_temperature;BMP_pressure;BME280_temperature;BME280_humidity;BME280_pressure;Samples;Min_cycle;Max_cycle;Signal;HPM_P1;HPM_P2
2021/04/22 00:01:27;;;;;;;15.83;5.30;;;;;;;7.51;50.38;101432.69;5020151;28;20175;-66
2021/04/22 00:03:52;;;;;;;13.00;4.97;;;;;;;7.50;51.51;101438.72;5020080;28;20213;-67
2021/04/22 00:06:18;;;;;;;19.80;5.20;;;;;;;7.32;51.74;101432.09;5026626;28;20552;-65
2021/04/22 00:08:43;;;;;;;11.20;5.47;;;;;;;7.53;51.44;101431.91;5020853;28;20526;-66
2021/04/22 00:11:08;;;;;;;20.70;5.40;;;;;;;7.39;51.00;101435.78;5020023;28;20182;-66
2021/04/22 00:13:34;;;;;;;10.87;5.10;;;;;;;7.85;49.76;101445.06;5020406;28;20203;-66
2021/04/22 00:16:01;;;;;;;12.10;5.63;;;;;;;7.79;50.05;101451.75;5002344;28;20475;-66
2021/04/22 00:18:26;;;;;;;10.10;5.37;;;;;;;7.27;50.78;101449.19;5019922;28;20167;-64
2021/04/22 00:20:51;;;;;;;10.70;5.23;;;;;;;7.58;50.92;101458.88;5020577;28;20429;-67
2021/04/22 00:23:17;;;;;;;11.37;5.20;;;;;;;7.70;49.97;101466.22;5019886;28;20207;-67
2021/04/22 00:25:43;;;;;;;14.33;6.33;;;;;;;7.80;49.84;101458.72;5020101;28;20209;-68
2021/04/22 00:28:10;;;;;;;13.00;5.10;;;;;;;7.07;51.60;101467.50;5020442;28;20417;-66
2021/04/22 00:30:36;;;;;;;14.43;5.07;;;;;;;7.58;49.89;101460.63;5019742;28;20202;-67
2021/04/22 00:33:04;;;;;;;13.83;4.80;;;;;;;7.58;49.74;101452.84;5020696;28;20414;-66
2021/04/22 00:35:29;;;;;;;14.67;5.53;;;;;;;7.74;50.34;101462.88;5020113;28;20405;-66
2021/04/22 00:37:54;;;;;;;14.83;5.83;;;;;;;7.52;50.90;101463.00;5019877;28;20690;-66
2021/04/22 00:40:24;;;;;;;17.93;5.37;;;;;;;7.65;50.10;101462.56;5019692;28;20519;-67
2021/04/22 00:42:50;;;;;;;10.97;5.10;;;;;;;7.53;51.19;101455.25;5019398;28;20254;-66
2021/04/22 00:45:16;;;;;;;20.30;5.10;;;;;;;7.30;51.25;101453.59;5019486;28;20561;-67
2021/04/22 00:47:41;;;;;;;18.83;6.43;;;;;;;7.84;51.03;101456.28;5019381;28;20421;-68
2021/04/22 00:50:16;;;;;;;12.00;5.40;;;;;;;7.92;50.29;101462.59;5019648;28;20675;-67
2021/04/22 00:52:42;;;;;;;11.20;4.70;;;;;;;7.91;49.66;101467.72;5019547;28;20185;-67
2021/04/22 00:55:08;;;;;;;22.53;5.90;;;;;;;7.93;49.49;101468.69;5019374;28;20422;-67
2021/04/22 00:57:33;;;;;;;14.80;5.40;;;;;;;8.01;49.04;101462.00;5019204;28;20186;-68
2021/04/22 00:59:59;;;;;;;13.20;4.50;;;;;;;7.49;49.91;101471.53;5019253;28;20421;-67
2021/04/22 01:02:25;;;;;;;15.43;5.77;;;;;;;7.73;49.14;101468.03;5019490;28;20189;-67
2021/04/22 01:04:50;;;;;;;14.23;5.30;;;;;;;7.74;49.71;101462.88;5018917;28;20550;-66
2021/04/22 01:07:16;;;;;;;18.53;4.90;;;;;;;7.88;49.14;101460.72;5018977;28;20500;-67
2021/04/22 01:09:41;;;;;;;17.07;5.17;;;;;;;7.56;48.42;101462.25;5019864;28;20175;-66
2021/04/22 01:12:08;;;;;;;9.13;4.57;;;;;;;7.47;48.15;101465.44;5019204;28;20206;-66
2021/04/22 01:14:33;;;;;;;9.17;4.90;;;;;;;8.11;47.15;101470.97;5018841;28;20443;-67
2021/04/22 01:16:59;;;;;;;12.10;5.40;;;;;;;8.06;46.69;101465.66;5019699;28;20410;-68
2021/04/22 01:19:24;;;;;;;12.50;5.87;;;;;;;7.97;47.05;101470.53;5019357;28;20295;-67
2021/04/22 01:21:51;;;;;;;15.53;5.20;;;;;;;7.89;48.06;101464.22;5018996;28;20250;-67
2021/04/22 01:24:16;;;;;;;16.13;6.30;;;;;;;7.84;49.09;101468.38;5019243;28;20592;-68
2021/04/22 01:26:42;;;;;;;26.97;5.63;;;;;;;7.96;48.15;101463.56;5002134;28;20441;-68
2021/04/22 01:29:07;;;;;;;13.40;5.20;;;;;;;7.88;48.19;101465.06;5019135;28;20182;-66
2021/04/22 01:31:32;;;;;;;15.83;5.83;;;;;;;7.97;47.94;101467.03;5018767;28;20175;-68
2021/04/22 01:34:06;;;;;;;13.03;6.60;;;;;;;7.81;48.72;101465.69;5018792;28;20245;-67
2021/04/22 01:36:34;;;;;;;13.27;5.70;;;;;;;8.14;47.35;101470.19;5019172;28;20171;-67
2021/04/22 01:39:00;;;;;;;13.40;5.40;;;;;;;7.71;48.35;101467.06;5018867;28;20446;-67
2021/04/22 01:41:27;;;;;;;12.60;4.93;;;;;;;7.64;47.92;101473.78;5018651;28;20440;-67
2021/04/22 01:43:53;;;;;;;10.23;4.80;;;;;;;8.03;47.49;101475.91;5019213;28;20498;-68
2021/04/22 01:46:18;;;;;;;13.83;5.47;;;;;;;8.01;47.66;101476.69;5001757;28;20496;-67
2021/04/22 01:48:43;;;;;;;9.37;5.77;;;;;;;7.64;48.17;101475.50;5018816;28;20552;-68
2021/04/22 01:51:09;;;;;;;15.77;5.40;;;;;;;7.85;49.13;101480.53;5019077;28;20167;-67
2021/04/22 01:53:34;;;;;;;22.07;8.00;;;;;;;7.80;48.30;101469.13;5018658;28;20178;-67
2021/04/22 01:55:59;;;;;;;22.33;10.87;;;;;;;8.07;48.17;101477.78;5018617;28;20194;-67
2021/04/22 01:58:26;;;;;;;18.33;6.27;;;;;;;8.06;47.85;101478.63;5019194;28;20175;-66
2021/04/22 02:00:54;;;;;;;10.53;5.33;;;;;;;8.19;47.72;101468.63;5018440;28;20254;-67
2021/04/22 02:03:20;;;;;;;16.30;5.23;;;;;;;8.03;49.05;101473.31;5018903;28;20462;-67
2021/04/22 02:05:46;;;;;;;18.10;5.63;;;;;;;8.31;48.07;101473.28;5023871;28;20433;-67
2021/04/22 02:08:13;;;;;;;12.30;4.63;;;;;;;7.81;49.45;101473.47;5018496;28;20755;-67
2021/04/22 02:10:39;;;;;;;15.13;5.50;;;;;;;8.62;47.70;101472.56;5018485;28;20174;-66
2021/04/22 02:13:06;;;;;;;20.93;5.60;;;;;;;8.22;47.85;101476.50;5018895;28;20409;-66
2021/04/22 02:15:31;;;;;;;10.20;4.97;;;;;;;8.21;47.95;101470.44;5018580;28;20831;-66
2021/04/22 02:17:57;;;;;;;16.30;5.80;;;;;;;8.40;47.81;101466.69;5021286;28;20417;-69
2021/04/22 02:20:23;;;;;;;15.23;5.30;;;;;;;8.33;47.87;101475.09;5023413;28;20175;-68
2021/04/22 02:22:48;;;;;;;12.83;5.37;;;;;;;8.19;47.45;101466.91;5023027;28;20422;-66
2021/04/22 02:25:16;;;;;;;14.20;5.00;;;;;;;7.91;48.59;101483.31;5022276;28;20234;-66
2021/04/22 02:27:42;;;;;;;9.20;4.37;;;;;;;7.72;47.04;101474.91;5022824;28;20163;-66
2021/04/22 02:30:12;;;;;;;9.63;4.60;;;;;;;8.82;44.98;101482.63;5022112;28;20435;-67
2021/04/22 02:32:38;;;;;;;7.93;4.47;;;;;;;7.96;45.53;101473.97;5022104;28;20162;-67
2021/04/22 02:35:05;;;;;;;9.70;4.80;;;;;;;7.83;45.66;101474.41;5022754;28;20693;-68
2021/04/22 02:37:30;;;;;;;9.67;4.33;;;;;;;8.13;45.79;101476.22;5022211;28;20258;-68
2021/04/22 02:39:55;;;;;;;14.80;4.67;;;;;;;7.85;44.75;101484.00;5004931;28;20787;-67
2021/04/22 02:42:21;;;;;;;15.47;4.90;;;;;;;7.92;46.58;101470.38;5022408;28;20184;-67
2021/04/22 02:44:46;;;;;;;9.13;4.63;;;;;;;8.11;44.45;101472.69;5022070;28;20207;-67
2021/04/22 02:47:11;;;;;;;12.43;4.50;;;;;;;8.42;44.28;101475.38;5022002;28;20190;-67
2021/04/22 02:49:37;;;;;;;13.90;4.93;;;;;;;8.21;45.57;101467.84;5022564;28;20483;-67
2021/04/22 02:52:03;;;;;;;12.87;4.77;;;;;;;8.29;44.61;101478.44;5021775;28;20443;-66
2021/04/22 02:54:28;;;;;;;12.77;4.83;;;;;;;8.33;46.25;101482.03;5021719;28;20167;-66
2021/04/22 02:56:53;;;;;;;12.73;5.07;;;;;;;8.53;45.08;101477.47;5022329;28;20460;-66
2021/04/22 02:59:18;;;;;;;12.43;5.20;;;;;;;8.84;44.81;101467.97;5021695;28;20175;-66
2021/04/22 03:01:44;;;;;;;13.33;5.40;;;;;;;8.45;49.32;101484.13;5021780;28;20183;-68
2021/04/22 03:04:09;;;;;;;14.80;4.77;;;;;;;8.29;46.37;101475.84;5022160;28;20218;-67
2021/04/22 03:06:34;;;;;;;11.60;5.47;;;;;;;8.54;46.05;101479.25;5021825;28;20556;-66
2021/04/22 03:09:00;;;;;;;16.90;5.27;;;;;;;8.75;45.66;101479.88;5021535;28;20541;-67
2021/04/22 03:11:25;;;;;;;11.77;4.33;;;;;;;7.79;48.17;101476.00;5021816;28;20175;-67
2021/04/22 03:13:50;;;;;;;14.73;5.20;;;;;;;8.42;46.74;101487.50;5021476;28;20521;-68
2021/04/22 03:16:16;;;;;;;9.43;4.67;;;;;;;8.21;47.66;101474.72;5021447;28;20175;-68
2021/04/22 03:18:41;;;;;;;16.80;5.63;;;;;;;8.48;46.40;101482.50;5021690;28;20183;-67
2021/04/22 03:21:06;;;;;;;15.87;5.80;;;;;;;8.62;46.90;101467.34;5021292;28;20190;-67
2021/04/22 03:23:32;;;;;;;11.67;5.73;;;;;;;8.48;46.62;101469.53;5021048;28;20198;-67
2021/04/22 03:25:57;;;;;;;14.80;5.17;;;;;;;8.40;46.33;101477.06;5021741;28;20198;-67
2021/04/22 03:28:22;;;;;;;9.73;5.20;;;;;;;8.80;45.25;101473.94;5020678;28;20175;-67
2021/04/22 03:30:48;;;;;;;14.00;5.57;;;;;;;8.79;44.65;101466.97;5021033;28;20171;-68
2021/04/22 03:33:13;;;;;;;13.17;4.80;;;;;;;8.54;45.07;101468.84;5021413;28;20181;-67
2021/04/22 03:35:39;;;;;;;10.67;4.63;;;;;;;8.65;45.02;101470.03;5021222;28;20182;-68
2021/04/22 03:38:04;;;;;;;12.10;5.50;;;;;;;8.30;47.75;101471.56;5021025;28;20197;-67
2021/04/22 03:40:29;;;;;;;13.33;4.90;;;;;;;8.58;46.46;101487.16;5021755;28;20167;-68
2021/04/22 03:42:55;;;;;;;12.33;5.97;;;;;;;8.85;45.49;101477.50;5021275;28;20233;-67
2021/04/22 03:45:21;;;;;;;11.53;5.20;;;;;;;8.54;46.79;101484.44;5021104;28;20206;-68
2021/04/22 03:47:47;;;;;;;25.23;13.23;;;;;;;8.43;48.39;101471.97;5021254;28;20170;-68
2021/04/22 03:50:14;;;;;;;8.57;4.90;;;;;;;8.51;48.92;101484.31;5020681;28;20433;-68
2021/04/22 03:52:40;;;;;;;11.20;5.40;;;;;;;8.52;48.74;101480.91;5020684;28;20301;-67
2021/04/22 03:55:07;;;;;;;16.80;7.90;;;;;;;8.60;49.17;101487.22;5021132;28;20441;-68
2021/04/22 03:57:32;;;;;;;10.97;5.43;;;;;;;8.54;51.44;101487.03;5020041;28;20807;-67
2021/04/22 03:59:58;;;;;;;13.10;5.50;;;;;;;8.57;51.35;101484.53;5020584;28;20425;-68
2021/04/22 04:02:23;;;;;;;19.83;5.77;;;;;;;8.64;50.42;101483.84;5021233;28;20167;-67
2021/04/22 04:04:48;;;;;;;13.53;5.07;;;;;;;8.56;51.28;101495.75;5023937;28;20207;-69
2021/04/22 04:07:14;;;;;;;15.13;5.70;;;;;;;8.03;52.22;101482.84;5020343;28;20201;-67
2021/04/22 04:09:39;;;;;;;14.17;5.90;;;;;;;8.25;51.90;101487.88;5020892;28;20213;-69
2021/04/22 04:12:05;;;;;;;12.20;5.20;;;;;;;8.46;52.05;101493.69;5020249;28;20262;-66
2021/04/22 04:14:31;;;;;;;14.73;5.27;;;;;;;8.76;50.24;101486.81;5020332;28;20559;-67
2021/04/22 04:16:56;;;;;;;14.00;5.17;;;;;;;8.26;50.86;101493.94;5020552;28;20402;-67
2021/04/22 04:19:21;;;;;;;11.23;5.27;;;;;;;8.59;50.08;101493.22;5020403;28;20513;-68
2021/04/22 04:21:46;;;;;;;13.40;4.93;;;;;;;8.51;49.60;101489.53;5020081;28;20171;-67
2021/04/22 04:24:12;;;;;;;14.37;5.10;;;;;;;8.72;48.81;101492.75;5020191;28;20230;-69
2021/04/22 04:26:37;;;;;;;11.03;4.73;;;;;;;8.66;50.67;101483.91;5020207;28;20461;-68
2021/04/22 04:29:04;;;;;;;10.50;4.97;;;;;;;8.68;49.19;101498.72;5020137;28;20202;-68
2021/04/22 04:31:29;;;;;;;19.43;4.97;;;;;;;9.19;48.50;101488.88;5019854;28;20175;-68
2021/04/22 04:33:56;;;;;;;14.63;5.30;;;;;;;8.55;51.01;101491.38;5020077;28;20799;-67
2021/04/22 04:36:21;;;;;;;15.00;4.93;;;;;;;7.91;52.62;101501.47;5020417;28;20198;-66
2021/04/22 04:38:46;;;;;;;12.43;5.03;;;;;;;8.11;53.58;101501.25;5019726;28;20438;-67
2021/04/22 04:41:11;;;;;;;11.43;4.83;;;;;;;8.13;54.48;101503.06;5018873;28;20183;-67
2021/04/22 04:43:37;;;;;;;14.30;5.40;;;;;;;8.68;54.50;101506.50;5002976;28;20198;-67
2021/04/22 04:46:03;;;;;;;10.10;4.70;;;;;;;8.33;53.79;101506.28;5019691;28;20217;-67
2021/04/22 04:48:28;;;;;;;11.67;5.30;;;;;;;8.80;53.34;101510.31;5020099;28;20205;-67
2021/04/22 04:50:53;;;;;;;15.60;5.00;;;;;;;8.47;54.29;101511.06;5020050;28;20171;-67
2021/04/22 04:53:19;;;;;;;12.37;5.40;;;;;;;8.18;53.81;101514.47;5019585;28;20487;-68
2021/04/22 04:55:44;;;;;;;21.50;5.77;;;;;;;8.50;52.44;101516.38;5019428;28;20179;-67
2021/04/22 04:58:09;;;;;;;16.33;4.87;;;;;;;8.71;52.50;101523.91;5020083;28;20171;-68
2021/04/22 05:00:34;;;;;;;10.53;4.60;;;;;;;8.89;52.63;101527.06;5020197;28;20171;-67
2021/04/22 05:03:00;;;;;;;15.80;5.80;;;;;;;8.53;51.92;101534.66;5021459;28;20536;-67
2021/04/22 05:05:25;;;;;;;15.33;5.83;;;;;;;8.80;50.31;101524.19;5021227;28;20209;-67
2021/04/22 05:07:50;;;;;;;11.60;4.70;;;;;;;8.96;49.60;101524.63;5019403;28;20179;-69
2021/04/22 05:10:16;;;;;;;14.77;5.40;;;;;;;8.69;50.55;101536.88;5019190;28;20529;-68
2021/04/22 05:12:41;;;;;;;8.30;4.43;;;;;;;8.38;49.82;101537.63;5019997;28;20164;-68
2021/04/22 05:15:07;;;;;;;14.43;4.93;;;;;;;9.01;48.57;101530.84;5002075;28;20417;-67
2021/04/22 05:17:33;;;;;;;14.57;4.70;;;;;;;9.39;49.04;101536.25;5018786;28;20261;-67
2021/04/22 05:19:58;;;;;;;19.47;4.70;;;;;;;8.69;49.00;101542.06;5019424;28;20182;-68
2021/04/22 05:22:24;;;;;;;10.00;4.50;;;;;;;8.69;48.95;101544.66;5019213;28;20213;-67
2021/04/22 05:24:49;;;;;;;16.93;4.90;;;;;;;8.68;49.12;101544.63;5018825;28;20247;-67
2021/04/22 05:27:14;;;;;;;12.50;4.77;;;;;;;9.12;47.29;101557.16;5019612;28;20170;-68
2021/04/22 05:29:40;;;;;;;13.70;6.83;;;;;;;9.08;47.65;101551.03;5008887;28;20545;-66
2021/04/22 05:32:06;;;;;;;19.73;5.60;;;;;;;9.25;47.64;101549.78;5012790;28;20178;-67
2021/04/22 05:34:31;;;;;;;13.83;4.60;;;;;;;9.11;47.79;101556.31;5018904;28;20423;-68
2021/04/22 05:36:57;;;;;;;17.77;4.93;;;;;;;9.52;47.37;101555.69;4999220;28;20167;-67
2021/04/22 05:39:22;;;;;;;12.00;4.90;;;;;;;8.70;48.46;101549.03;5017088;28;20210;-68
2021/04/22 05:41:49;;;;;;;13.30;4.87;;;;;;;9.08;48.25;101551.88;5019248;28;20487;-68
2021/04/22 05:44:14;;;;;;;22.63;6.97;;;;;;;9.26;47.89;101554.13;5018644;28;20225;-67
2021/04/22 05:46:40;;;;;;;8.80;5.10;;;;;;;8.97;48.29;101563.72;5017711;28;20465;-67
2021/04/22 05:49:05;;;;;;;8.67;3.97;;;;;;;9.00;48.29;101566.41;5038179;28;20186;-67
2021/04/22 05:51:31;;;;;;;10.50;4.47;;;;;;;9.71;46.61;101576.16;5021763;28;20442;-68
2021/04/22 05:53:56;;;;;;;12.47;5.40;;;;;;;9.27;48.02;101568.91;5014359;28;20572;-67
2021/04/22 05:56:22;;;;;;;13.23;5.27;;;;;;;9.52;47.11;101580.00;5006046;28;20401;-67
2021/04/22 05:58:47;;;;;;;8.40;4.10;;;;;;;9.60;47.34;101572.41;5014615;28;20195;-67
2021/04/22 06:01:12;;;;;;;16.23;4.63;;;;;;;8.85;49.34;101578.91;5018614;28;20187;-67
2021/04/22 06:03:38;;;;;;;13.57;5.63;;;;;;;9.18;48.20;101583.38;5022160;28;20199;-67
2021/04/22 06:06:03;;;;;;;16.13;5.90;;;;;;;9.12;48.68;101588.38;5017913;28;20281;-67
2021/04/22 06:08:28;;;;;;;8.67;4.57;;;;;;;9.39;48.84;101585.69;5018578;28;20175;-66
2021/04/22 06:10:54;;;;;;;8.10;4.20;;;;;;;9.91;47.08;101576.69;5014570;28;20547;-67
2021/04/22 06:13:19;;;;;;;16.93;5.07;;;;;;;9.70;46.51;101577.03;5017003;28;20191;-66
2021/04/22 06:15:44;;;;;;;22.23;6.97;;;;;;;10.72;43.69;101566.50;5018522;28;20221;-66
2021/04/22 06:18:10;;;;;;;10.87;4.40;;;;;;;11.52;41.42;101571.63;5019051;28;20205;-68
2021/04/22 06:20:35;;;;;;;9.43;5.10;;;;;;;11.42;39.88;101566.22;5012591;28;20191;-66
2021/04/22 06:23:01;;;;;;;9.50;4.57;;;;;;;10.38;41.34;101576.16;5035229;28;20544;-67
2021/04/22 06:25:26;;;;;;;13.40;5.23;;;;;;;10.77;40.41;101570.09;5034153;28;20591;-67
2021/04/22 06:27:58;;;;;;;17.70;6.13;;;;;;;10.90;40.26;101578.19;5018254;28;20171;-67
2021/04/22 06:30:24;;;;;;;18.43;4.90;;;;;;;10.05;43.36;101570.94;5018462;28;20539;-66
2021/04/22 06:32:49;;;;;;;12.73;5.33;;;;;;;10.32;43.33;101577.69;5018004;28;20464;-67
2021/04/22 06:35:15;;;;;;;12.63;5.40;;;;;;;10.64;43.91;101595.88;5018232;28;20418;-66
2021/04/22 06:37:41;;;;;;;11.73;5.07;;;;;;;10.71;42.12;101582.97;5022597;28;20162;-66
2021/04/22 06:40:15;;;;;;;14.30;5.70;;;;;;;10.22;42.23;101592.22;5037789;28;20175;-67
2021/04/22 06:42:41;;;;;;;13.90;4.97;;;;;;;10.66;43.29;101602.84;5038083;28;20452;-67
2021/04/22 06:45:08;;;;;;;7.77;4.60;;;;;;;10.10;43.55;101606.69;5037829;28;20582;-67
2021/04/22 06:47:33;;;;;;;15.73;5.30;;;;;;;10.54;42.63;101611.28;5037750;28;20424;-66
2021/04/22 06:49:59;;;;;;;9.20;4.77;;;;;;;10.33;43.10;101611.59;5017739;28;20676;-67
2021/04/22 06:52:24;;;;;;;14.50;5.00;;;;;;;10.06;43.15;101602.25;4998519;28;20191;-68
2021/04/22 06:54:50;;;;;;;15.63;4.63;;;;;;;10.57;41.89;101618.31;4998356;28;20538;-66
2021/04/22 06:57:15;;;;;;;16.23;5.57;;;;;;;10.88;42.41;101609.44;4998897;28;20160;-66
2021/04/22 06:59:41;;;;;;;13.93;4.87;;;;;;;11.91;39.42;101608.03;4998510;28;20546;-66
2021/04/22 07:02:08;;;;;;;12.23;4.87;;;;;;;12.33;38.38;101605.31;4998104;28;20182;-67
2021/04/22 07:04:33;;;;;;;17.83;6.90;;;;;;;12.45;37.00;101605.50;5000869;28;20962;-66
2021/04/22 07:06:58;;;;;;;8.10;4.37;;;;;;;10.85;41.12;101608.50;5001631;28;20465;-66
2021/04/22 07:09:25;;;;;;;16.63;5.40;;;;;;;11.09;41.35;101611.63;5001738;28;20167;-68
2021/04/22 07:11:50;;;;;;;10.53;4.67;;;;;;;11.12;41.56;101619.56;5002116;28;20225;-67
2021/04/22 07:14:15;;;;;;;13.53;5.40;;;;;;;11.77;39.32;101615.63;5010749;28;20450;-67
2021/04/22 07:16:40;;;;;;;10.20;4.33;;;;;;;12.23;38.79;101610.38;5041175;28;20228;-67
2021/04/22 07:19:07;;;;;;;15.83;5.30;;;;;;;12.11;39.61;101623.25;5041854;28;20590;-67
2021/04/22 07:21:32;;;;;;;13.10;5.13;;;;;;;11.60;40.20;101617.03;5013826;28;20297;-67
2021/04/22 07:23:58;;;;;;;11.10;4.90;;;;;;;11.59;39.88;101633.53;5025100;28;20565;-66
2021/04/22 07:26:23;;;;;;;13.60;4.87;;;;;;;13.23;37.30;101623.16;5021056;28;20182;-67
2021/04/22 07:28:49;;;;;;;11.90;4.40;;;;;;;16.02;31.50;101616.47;5020169;28;20178;-66
2021/04/22 07:31:14;;;;;;;9.97;4.83;;;;;;;16.58;30.36;101614.69;5010968;28;20183;-67
2021/04/22 07:33:40;;;;;;;9.20;4.70;;;;;;;14.45;33.83;101625.34;5020906;28;20564;-67
2021/04/22 07:36:05;;;;;;;13.53;5.73;;;;;;;12.90;37.15;101633.19;5020035;28;20221;-66
2021/04/22 07:38:31;;;;;;;13.60;5.10;;;;;;;13.01;37.61;101637.72;5025458;28;20207;-66
2021/04/22 07:40:56;;;;;;;11.43;4.93;;;;;;;12.82;38.14;101629.59;5012871;28;20225;-67
2021/04/22 07:43:21;;;;;;;16.03;5.93;;;;;;;12.01;39.68;101639.59;5019479;28;20189;-62
2021/04/22 07:45:47;;;;;;;13.03;5.73;;;;;;;12.62;39.97;101639.75;5020000;28;20302;-63
2021/04/22 07:48:13;;;;;;;14.80;4.90;;;;;;;12.52;38.54;101640.47;5016562;28;20201;-63
2021/04/22 07:50:39;;;;;;;14.97;5.57;;;;;;;12.60;37.65;101649.31;5004426;28;20211;-64
2021/04/22 07:53:07;;;;;;;12.50;5.33;;;;;;;12.59;37.55;101637.97;5009930;28;20183;-63
2021/04/22 07:55:39;;;;;;;10.33;5.17;;;;;;;11.95;38.79;101646.47;5023607;28;20810;-63
2021/04/22 07:58:05;;;;;;;12.47;5.20;;;;;;;12.55;37.99;101651.84;5020700;28;20407;-64
2021/04/22 08:00:31;;;;;;;15.53;5.57;;;;;;;12.69;38.02;101654.69;5020379;28;20426;-63
2021/04/22 08:02:57;;;;;;;18.77;6.00;;;;;;;12.15;38.08;101655.53;5021477;28;20167;-64
2021/04/22 08:05:26;;;;;;;10.87;5.30;;;;;;;12.18;37.70;101663.41;5019724;28;20569;-64
2021/04/22 08:07:52;;;;;;;10.97;4.90;;;;;;;11.69;39.90;101664.22;5020051;28;20193;-62
2021/04/22 08:10:28;;;;;;;12.43;5.67;;;;;;;12.82;37.91;101655.75;5020489;28;21200;-65
2021/04/22 08:12:53;;;;;;;8.57;4.93;;;;;;;12.34;38.27;101656.72;5019802;28;20181;-65
2021/04/22 08:15:19;;;;;;;14.80;6.43;;;;;;;12.70;39.04;101666.91;5018650;28;20418;-65
2021/04/22 08:17:45;;;;;;;14.83;5.53;;;;;;;12.98;37.53;101676.06;5019643;28;20229;-65
2021/04/22 08:20:28;;;;;;;10.60;5.47;;;;;;;13.60;35.50;101661.19;5019736;28;20237;-66
2021/04/22 08:22:55;;;;;;;12.03;6.63;;;;;;;14.30;35.18;101657.56;5011055;28;20257;-66
2021/04/22 08:25:32;;;;;;;12.00;5.57;;;;;;;14.07;35.44;101667.84;5013529;28;20493;-66
2021/04/22 08:27:57;;;;;;;13.20;5.40;;;;;;;12.79;37.86;101671.41;5018002;28;20515;-65
2021/04/22 08:30:29;;;;;;;14.03;5.70;;;;;;;12.41;38.01;101683.00;5038563;28;20719;-65
2021/04/22 08:32:56;;;;;;;10.17;5.60;;;;;;;12.28;38.50;101684.50;5040061;28;20532;-66
2021/04/22 08:35:21;;;;;;;13.87;6.10;;;;;;;13.12;39.00;101676.28;5039468;28;20492;-65
2021/04/22 08:37:47;;;;;;;12.40;5.30;;;;;;;12.69;37.68;101685.19;5019532;28;20599;-66
2021/04/22 08:40:14;;;;;;;9.57;5.23;;;;;;;13.63;35.68;101683.94;5002382;28;20182;-66
2021/04/22 08:42:40;;;;;;;13.07;6.10;;;;;;;15.03;33.52;101675.63;5002361;28;20443;-67
2021/04/22 08:45:08;;;;;;;17.03;6.10;;;;;;;14.26;34.94;101675.84;5019249;28;20469;-65
2021/04/22 08:47:34;;;;;;;17.27;5.43;;;;;;;13.99;35.06;101677.38;5010281;28;20454;-66
2021/04/22 08:49:59;;;;;;;12.10;5.37;;;;;;;14.78;33.62;101684.22;5016098;28;20392;-67
2021/04/22 08:52:25;;;;;;;8.93;5.53;;;;;;;15.71;31.26;101678.56;5019330;28;20170;-66
2021/04/22 08:54:51;;;;;;;16.73;5.30;;;;;;;15.34;31.49;101681.91;5019835;28;20167;-65
2021/04/22 08:57:17;;;;;;;14.03;5.73;;;;;;;14.15;33.95;101700.25;5015218;28;20285;-66
2021/04/22 08:59:43;;;;;;;11.43;6.13;;;;;;;13.21;35.76;101679.88;5019618;28;20418;-66
2021/04/22 09:02:08;;;;;;;12.33;5.43;;;;;;;13.48;35.66;101685.50;5018822;28;20420;-66
2021/04/22 09:04:35;;;;;;;11.63;5.47;;;;;;;12.49;37.06;101691.00;5019088;28;20342;-66
2021/04/22 09:07:00;;;;;;;13.13;6.00;;;;;;;13.49;35.55;101694.25;5018354;28;20178;-68
2021/04/22 09:09:25;;;;;;;14.60;6.53;;;;;;;13.41;35.96;101701.09;5000310;28;20438;-67
2021/04/22 09:11:51;;;;;;;13.00;5.53;;;;;;;13.30;35.63;101691.34;5019094;28;20436;-66
2021/04/22 09:14:18;;;;;;;17.70;6.77;;;;;;;13.36;36.17;101708.91;5019165;28;20532;-65
2021/04/22 09:16:43;;;;;;;12.67;6.13;;;;;;;13.37;36.61;101697.59;5019469;28;20179;-67
2021/04/22 09:19:15;;;;;;;11.30;6.10;;;;;;;13.06;36.89;101694.50;5006411;28;20423;-66
2021/04/22 09:21:44;;;;;;;12.20;6.27;;;;;;;13.46;36.77;101699.44;5013424;28;20186;-67
2021/04/22 09:24:15;;;;;;;8.67;6.40;;;;;;;14.49;35.09;101703.19;5018736;28;20481;-68
2021/04/22 09:26:50;;;;;;;12.43;5.67;;;;;;;13.71;33.88;101705.00;5018407;28;20422;-66
2021/04/22 09:29:30;;;;;;;11.33;5.93;;;;;;;13.45;34.76;101692.47;5020878;28;20746;-67
2021/04/22 09:32:09;;;;;;;11.63;5.93;;;;;;;14.82;32.59;101695.63;5018330;28;20711;-67
2021/04/22 09:34:35;;;;;;;10.73;5.97;;;;;;;16.84;29.57;101693.66;5018724;28;20666;-66
2021/04/22 09:37:00;;;;;;;9.20;6.00;;;;;;;15.68;29.87;101704.84;5015352;28;20449;-68
2021/04/22 09:39:28;;;;;;;12.43;5.63;;;;;;;15.87;29.99;101685.69;5003053;28;20287;-69
2021/04/22 09:42:04;;;;;;;10.00;5.40;;;;;;;14.41;32.87;101712.75;4998943;28;20287;-67
2021/04/22 09:44:30;;;;;;;11.40;5.53;;;;;;;13.35;35.37;101709.72;4997897;28;20437;-68
2021/04/22 09:47:07;;;;;;;15.77;6.57;;;;;;;13.66;34.24;101707.56;4999273;28;20418;-67
2021/04/22 09:49:32;;;;;;;14.93;6.60;;;;;;;14.54;33.80;101710.22;4998880;28;20171;-68
2021/04/22 09:52:08;;;;;;;11.27;5.70;;;;;;;14.84;33.15;101700.88;5016370;28;20429;-67
2021/04/22 09:54:42;;;;;;;10.53;5.80;;;;;;;14.79;33.31;101706.09;5012026;28;20370;-68
2021/04/22 09:57:11;;;;;;;11.40;6.17;;;;;;;15.76;33.02;101701.41;4981889;28;20389;-67
2021/04/22 09:59:42;;;;;;;12.80;6.00;;;;;;;13.05;36.39;101716.28;5017018;28;20453;-66
2021/04/22 10:02:07;;;;;;;12.23;5.57;;;;;;;15.57;32.26;101712.69;5021373;28;20426;-66
2021/04/22 10:04:38;;;;;;;13.80;5.50;;;;;;;14.60;31.73;101705.91;5018560;28;20859;-66
2021/04/22 10:07:05;;;;;;;12.30;6.00;;;;;;;14.42;32.39;101711.88;5016945;28;20186;-66
2021/04/22 10:09:34;;;;;;;12.50;6.00;;;;;;;13.66;34.55;101710.16;5016911;28;20528;-66
2021/04/22 10:12:01;;;;;;;12.30;6.03;;;;;;;13.44;36.19;101723.00;5001644;28;20515;-66
2021/04/22 10:14:31;;;;;;;11.57;5.97;;;;;;;13.48;36.09;101714.31;5018145;28;20396;-67
2021/04/22 10:16:57;;;;;;;11.37;5.67;;;;;;;14.18;33.86;101711.63;5017760;28;20430;-66
2021/04/22 10:19:22;;;;;;;9.00;6.10;;;;;;;15.13;32.27;101711.59;5018169;28;20440;-65
2021/04/22 10:21:47;;;;;;;10.13;5.57;;;;;;;14.17;33.93;101730.84;5015837;28;20568;-66
2021/04/22 10:24:15;;;;;;;7.20;5.13;;;;;;;15.18;32.26;101706.34;5017133;28;20249;-66
2021/04/22 10:26:40;;;;;;;11.10;5.70;;;;;;;14.34;33.77;101718.78;5017444;28;20191;-65
2021/04/22 10:29:07;;;;;;;11.13;5.80;;;;;;;14.08;33.88;101710.66;5030781;28;20431;-68
2021/04/22 10:31:32;;;;;;;8.73;5.50;;;;;;;14.53;33.75;101722.47;5039084;28;20174;-69
2021/04/22 10:33:59;;;;;;;7.27;5.90;;;;;;;14.15;34.32;101722.97;5018761;28;20426;-66
2021/04/22 10:36:24;;;;;;;10.83;5.83;;;;;;;14.35;34.27;101717.91;5018691;28;20578;-66
2021/04/22 10:38:51;;;;;;;8.63;5.07;;;;;;;14.34;33.33;101710.91;5019442;28;20528;-67
2021/04/22 10:41:18;;;;;;;8.43;5.73;;;;;;;15.46;31.97;101716.13;5021157;28;20182;-66
2021/04/22 10:43:43;;;;;;;9.50;5.53;;;;;;;15.58;31.85;101719.72;5021017;28;20566;-67
2021/04/22 10:46:09;;;;;;;9.43;5.80;;;;;;;14.88;32.99;101731.53;5021196;28;20560;-66
2021/04/22 10:48:34;;;;;;;13.90;6.63;;;;;;;13.94;36.75;101739.34;5021717;28;20186;-66
2021/04/22 10:50:59;;;;;;;10.67;7.23;;;;;;;13.78;38.44;101722.56;5022000;28;20178;-65
2021/04/22 10:53:25;;;;;;;19.47;7.40;;;;;;;13.19;39.42;101731.31;5018556;28;20248;-66
2021/04/22 10:55:54;;;;;;;13.87;6.80;;;;;;;12.33;42.23;101742.13;5004379;28;20213;-67
2021/04/22 10:58:23;;;;;;;14.07;6.40;;;;;;;14.20;37.44;101726.50;5017462;28;20179;-66
2021/04/22 11:00:51;;;;;;;10.27;6.20;;;;;;;14.81;36.04;101715.72;5013749;28;20483;-67
2021/04/22 11:03:29;;;;;;;10.60;6.00;;;;;;;14.01;37.27;101714.94;5021500;28;20417;-66
2021/04/22 11:05:59;;;;;;;12.53;6.10;;;;;;;12.57;40.41;101738.19;5006240;28;20401;-64
2021/04/22 11:08:45;;;;;;;12.57;6.20;;;;;;;12.73;41.41;101726.25;5019719;28;20450;-66
2021/04/22 11:11:21;;;;;;;16.57;6.93;;;;;;;13.67;39.07;101737.28;5016876;28;20459;-66
2021/04/22 11:13:48;;;;;;;11.13;5.87;;;;;;;13.90;38.55;101722.69;5021013;28;20424;-64
2021/04/22 11:16:14;;;;;;;8.40;6.10;;;;;;;13.93;38.56;101733.22;5017018;28;20453;-65
2021/04/22 11:18:45;;;;;;;14.33;6.10;;;;;;;14.01;37.94;101728.06;5021525;28;20542;-66